createdAt,value
2022-09-25T00:00:30.756Z,53.33
2022-09-25T00:02:57.089Z,56.15
2022-09-25T00:05:23.441Z,69.95
2022-09-25T00:07:49.705Z,96.20
2022-09-25T00:10:15.969Z,95.00
2022-09-25T00:12:42.269Z,69.90
2022-09-25T00:15:08.512Z,59.70
2022-09-25T00:17:34.798Z,50.47
2022-09-25T00:20:01.188Z,55.10
2022-09-25T00:22:28.008Z,51.92
2022-09-25T00:24:54.273Z,52.60
2022-09-25T00:27:20.545Z,51.38
2022-09-25T00:29:47.517Z,49.47
2022-09-25T00:32:13.781Z,49.92
2022-09-25T00:34:40.370Z,53.13
2022-09-25T00:37:06.627Z,55.78
2022-09-25T00:39:32.875Z,53.28
2022-09-25T00:41:59.138Z,53.38
2022-09-25T00:44:25.430Z,54.55
2022-09-25T00:46:51.683Z,53.00
2022-09-25T00:49:17.930Z,51.28
2022-09-25T00:51:44.184Z,51.63
2022-09-25T00:54:10.617Z,55.78
2022-09-25T00:56:37.001Z,57.50
2022-09-25T00:59:03.265Z,56.47
2022-09-25T01:01:29.540Z,60.15
2022-09-25T01:03:56.038Z,64.40
2022-09-25T01:06:22.293Z,60.63
2022-09-25T01:08:48.541Z,54.13
2022-09-25T01:11:14.862Z,58.95
2022-09-25T01:13:41.238Z,60.58
2022-09-25T01:16:08.120Z,60.22
2022-09-25T01:18:34.393Z,53.90
2022-09-25T01:21:00.638Z,57.13
2022-09-25T01:23:26.908Z,54.28
2022-09-25T01:25:55.964Z,59.95
2022-09-25T01:28:22.255Z,56.88
2022-09-25T01:30:48.547Z,55.47
2022-09-25T01:33:14.927Z,55.22
2022-09-25T01:35:41.194Z,54.65
2022-09-25T01:38:07.616Z,53.08
2022-09-25T01:40:33.949Z,54.92
2022-09-25T01:43:01.481Z,53.60
2022-09-25T01:45:28.551Z,52.22
2022-09-25T01:47:54.958Z,54.50
2022-09-25T01:50:21.201Z,56.00
2022-09-25T01:52:47.439Z,62.65
2022-09-25T01:55:13.686Z,65.28
2022-09-25T01:57:39.956Z,67.50
2022-09-25T02:00:06.205Z,67.80
2022-09-25T02:02:35.125Z,66.65
2022-09-25T02:05:01.481Z,64.35
2022-09-25T02:07:27.758Z,55.88
2022-09-25T02:09:54.048Z,59.55
2022-09-25T02:12:20.323Z,57.42
2022-09-25T02:14:46.593Z,59.95
2022-09-25T02:17:12.857Z,54.97
2022-09-25T02:19:57.758Z,58.50
2022-09-25T02:22:24.640Z,60.80
2022-09-25T02:24:54.109Z,57.17
2022-09-25T02:27:22.835Z,54.60
2022-09-25T02:29:49.106Z,57.30
2022-09-25T02:32:15.608Z,54.58
2022-09-25T02:34:41.855Z,51.20
2022-09-25T02:37:08.130Z,51.67
2022-09-25T02:39:34.388Z,58.95
2022-09-25T02:42:00.656Z,56.22
2022-09-25T02:44:26.909Z,59.40
2022-09-25T02:46:53.172Z,59.50
2022-09-25T02:49:19.431Z,61.33
2022-09-25T02:51:45.680Z,59.38
2022-09-25T02:54:12.012Z,64.00
2022-09-25T02:56:38.349Z,57.83
2022-09-25T02:59:06.680Z,52.58
2022-09-25T03:01:32.984Z,56.58
2022-09-25T03:03:59.304Z,60.72
2022-09-25T03:06:25.556Z,59.63
2022-09-25T03:08:52.904Z,59.33
2022-09-25T03:11:19.695Z,60.13
2022-09-25T03:13:45.955Z,65.88
2022-09-25T03:16:12.254Z,62.17
2022-09-25T03:18:38.591Z,72.28
2022-09-25T03:21:04.839Z,67.18
2022-09-25T03:23:32.176Z,66.05
2022-09-25T03:25:58.430Z,70.97
2022-09-25T03:28:24.706Z,65.70
2022-09-25T03:30:52.363Z,63.63
2022-09-25T03:33:18.710Z,62.50
2022-09-25T03:35:44.955Z,58.03
2022-09-25T03:38:12.429Z,59.85
2022-09-25T03:40:38.763Z,71.63
2022-09-25T03:45:30.953Z,65.13
2022-09-25T03:47:57.229Z,63.97
2022-09-25T03:50:23.470Z,61.92
2022-09-25T03:52:49.797Z,57.80
2022-09-25T03:55:16.074Z,63.45
2022-09-25T03:57:42.892Z,67.97
2022-09-25T04:00:09.933Z,71.53
2022-09-25T04:02:36.265Z,70.90
2022-09-25T04:05:04.037Z,65.35
2022-09-25T04:07:30.407Z,65.40
2022-09-25T04:09:56.672Z,58.47
2022-09-25T04:12:22.922Z,56.92
2022-09-25T04:14:49.173Z,58.03
2022-09-25T04:17:15.437Z,66.88
2022-09-25T04:19:41.679Z,68.38
2022-09-25T04:22:07.940Z,66.28
2022-09-25T04:24:49.564Z,68.15
2022-09-25T04:27:15.848Z,65.47
2022-09-25T04:29:42.427Z,64.15
2022-09-25T04:32:27.431Z,63.72
2022-09-25T04:34:53.674Z,61.35
2022-09-25T04:37:23.178Z,55.72
2022-09-25T04:39:49.433Z,59.97
2022-09-25T04:42:15.705Z,59.38
2022-09-25T04:44:41.946Z,58.13
2022-09-25T04:47:08.212Z,63.55
2022-09-25T04:49:34.452Z,67.55
2022-09-25T04:52:00.760Z,63.35
2022-09-25T04:54:27.477Z,57.60
2022-09-25T04:56:54.227Z,61.88
2022-09-25T04:59:20.468Z,64.22
2022-09-25T05:01:46.873Z,62.20
2022-09-25T05:04:14.288Z,62.35
2022-09-25T05:06:40.624Z,65.20
2022-09-25T05:09:06.971Z,67.57
2022-09-25T05:11:33.265Z,62.00
2022-09-25T05:13:59.521Z,56.42
2022-09-25T05:16:27.948Z,58.60
2022-09-25T05:18:54.254Z,54.30
2022-09-25T05:21:20.509Z,52.78
2022-09-25T05:23:46.769Z,52.25
2022-09-25T05:26:13.084Z,48.65
2022-09-25T05:28:39.334Z,51.28
2022-09-25T05:31:05.705Z,51.15
2022-09-25T05:33:32.047Z,52.90
2022-09-25T05:35:58.300Z,55.42
2022-09-25T05:38:24.547Z,51.85
2022-09-25T05:40:51.214Z,57.90
2022-09-25T05:43:17.559Z,53.97
2022-09-25T05:45:43.872Z,57.20
2022-09-25T05:48:10.216Z,54.22
2022-09-25T05:50:36.482Z,51.10
2022-09-25T05:53:02.749Z,51.60
2022-09-25T05:55:29.011Z,55.42
2022-09-25T05:57:55.260Z,55.60
2022-09-25T06:00:21.522Z,53.33
2022-09-25T06:02:47.797Z,53.97
2022-09-25T06:05:14.674Z,53.78
2022-09-25T06:07:43.975Z,54.13
2022-09-25T06:10:10.711Z,54.75
2022-09-25T06:12:36.987Z,56.70
2022-09-25T06:15:03.235Z,57.88
2022-09-25T06:17:29.502Z,56.88
2022-09-25T06:19:55.746Z,57.55
2022-09-25T06:22:22.023Z,55.55
2022-09-25T06:24:48.884Z,56.05
2022-09-25T06:27:15.156Z,55.38
2022-09-25T06:29:41.412Z,57.15
2022-09-25T06:32:07.666Z,57.38
2022-09-25T06:34:33.924Z,60.90
2022-09-25T06:37:00.194Z,56.13
2022-09-25T06:39:26.453Z,56.15
2022-09-25T06:41:53.022Z,65.72
2022-09-25T06:44:19.402Z,70.50
2022-09-25T06:46:46.898Z,65.80
2022-09-25T06:49:13.394Z,64.32
2022-09-25T06:51:40.183Z,53.10
2022-09-25T06:54:06.826Z,51.22
2022-09-25T06:56:33.123Z,52.45
2022-09-25T06:58:59.367Z,53.03
2022-09-25T07:01:25.698Z,61.03
2022-09-25T07:03:51.997Z,47.15
2022-09-25T07:06:18.246Z,45.85
2022-09-25T07:08:44.545Z,47.78
2022-09-25T07:11:10.823Z,53.75
2022-09-25T07:13:37.095Z,59.35
2022-09-25T07:16:03.445Z,65.22
2022-09-25T07:18:29.751Z,65.85
2022-09-25T07:20:56.073Z,51.90
2022-09-25T07:23:22.427Z,45.03
2022-09-25T07:25:48.710Z,45.92
2022-09-25T07:28:15.737Z,49.15
2022-09-25T07:30:42.129Z,53.47
2022-09-25T07:33:08.468Z,57.67
2022-09-25T07:35:34.713Z,65.38
2022-09-25T07:38:00.994Z,92.43
2022-09-25T07:40:28.714Z,91.95
2022-09-25T07:42:54.990Z,82.43
2022-09-25T07:45:21.248Z,72.35
2022-09-25T07:47:47.498Z,67.85
2022-09-25T07:50:15.654Z,60.97
2022-09-25T07:52:42.171Z,58.13
2022-09-25T07:55:08.427Z,54.85
2022-09-25T07:57:34.741Z,51.53
2022-09-25T08:00:00.996Z,75.70
2022-09-25T08:02:27.314Z,65.70
2022-09-25T08:04:54.507Z,83.05
2022-09-25T08:07:20.691Z,79.70
2022-09-25T08:09:46.950Z,83.65
2022-09-25T08:12:13.604Z,96.38
2022-09-25T08:14:39.871Z,135.23
2022-09-25T08:17:06.119Z,109.97
2022-09-25T08:19:33.132Z,121.85
2022-09-25T08:21:59.378Z,71.22
2022-09-25T08:24:25.627Z,63.10
2022-09-25T08:26:51.885Z,140.32
2022-09-25T08:29:18.420Z,209.13
2022-09-25T08:31:44.772Z,121.35
2022-09-25T08:34:36.312Z,67.88
2022-09-25T08:36:57.956Z,59.10
2022-09-25T08:39:24.221Z,62.60
2022-09-25T08:41:50.558Z,58.67
2022-09-25T08:44:16.818Z,65.80
2022-09-25T08:47:01.862Z,80.43
2022-09-25T08:49:28.383Z,78.80
2022-09-25T08:51:54.651Z,74.85
2022-09-25T08:54:20.898Z,85.20
2022-09-25T08:56:47.661Z,73.95
2022-09-25T08:59:13.904Z,65.47
2022-09-25T09:01:40.227Z,83.68
2022-09-25T09:04:06.753Z,84.70
2022-09-25T09:06:33.046Z,68.15
2022-09-25T09:08:59.311Z,74.20
2022-09-25T09:11:25.594Z,73.32
2022-09-25T09:13:51.939Z,76.80
2022-09-25T09:16:18.238Z,93.13
2022-09-25T09:18:44.543Z,84.10
2022-09-25T09:21:10.800Z,83.40
2022-09-25T09:23:37.085Z,129.32
2022-09-25T09:26:03.347Z,62.08
2022-09-25T09:28:30.160Z,224.20
2022-09-25T09:30:56.485Z,93.57
2022-09-25T09:33:22.757Z,107.80
2022-09-25T09:35:49.015Z,121.15
2022-09-25T09:38:15.272Z,126.15
2022-09-25T09:40:41.613Z,95.97
2022-09-25T09:43:07.899Z,79.30
2022-09-25T09:45:34.177Z,220.75
2022-09-25T09:48:00.423Z,74.60
2022-09-25T09:50:26.681Z,109.45
2022-09-25T09:52:52.927Z,116.70
2022-09-25T09:55:19.224Z,70.70
2022-09-25T09:57:45.481Z,95.90
2022-09-25T10:00:11.745Z,184.48
2022-09-25T10:02:38.184Z,69.43
2022-09-25T10:05:04.516Z,114.82
2022-09-25T10:07:30.773Z,103.18
2022-09-25T10:09:58.071Z,82.82
2022-09-25T10:12:25.408Z,103.80
2022-09-25T10:14:51.842Z,156.27
2022-09-25T10:17:18.098Z,224.45
2022-09-25T10:19:44.359Z,132.32
2022-09-25T10:22:11.982Z,149.93
2022-09-25T10:24:41.024Z,269.27
2022-09-25T10:27:07.406Z,246.75
2022-09-25T10:29:33.657Z,133.77
2022-09-25T10:31:59.924Z,147.65
2022-09-25T10:34:28.576Z,170.35
2022-09-25T10:36:58.020Z,137.00
2022-09-25T10:39:43.514Z,145.52
2022-09-25T10:42:14.228Z,113.10
2022-09-25T10:44:40.508Z,106.18
2022-09-25T10:47:25.554Z,229.98
2022-09-25T10:50:10.381Z,297.52
2022-09-25T10:52:36.660Z,218.23
2022-09-25T10:55:02.927Z,124.15
2022-09-25T10:57:33.970Z,102.75
2022-09-25T11:00:00.403Z,118.90
2022-09-25T11:02:28.316Z,93.18
2022-09-25T11:07:27.227Z,136.38
2022-09-25T11:09:59.065Z,263.95
2022-09-25T11:12:26.336Z,131.45
2022-09-25T11:14:55.228Z,193.68
2022-09-25T11:17:21.776Z,230.60
2022-09-25T11:19:48.040Z,238.65
2022-09-25T11:22:14.296Z,178.25
2022-09-25T11:24:40.564Z,209.85
2022-09-25T11:27:06.844Z,170.60
2022-09-25T11:29:33.714Z,282.13
2022-09-25T11:31:59.997Z,308.25
2022-09-25T11:34:26.252Z,337.00
2022-09-25T11:36:52.531Z,305.95
2022-09-25T11:39:37.601Z,205.88
2022-09-25T11:42:03.876Z,176.40
2022-09-25T11:44:32.111Z,227.45
2022-09-25T11:46:59.821Z,243.73
2022-09-25T11:49:26.604Z,595.38
2022-09-25T11:51:52.903Z,1999.90
2022-09-25T11:54:33.359Z,1999.90
2022-09-25T11:57:03.863Z,1999.90
2022-09-25T11:59:30.125Z,1999.90
2022-09-25T12:01:56.402Z,1999.90
2022-09-25T12:04:23.035Z,1999.90
2022-09-25T12:06:49.620Z,1999.90
2022-09-25T12:09:15.905Z,1999.90
2022-09-25T12:11:45.694Z,1999.90
2022-09-25T12:14:12.133Z,1999.90
2022-09-25T12:16:38.504Z,1999.90
2022-09-25T12:19:04.803Z,1999.90
2022-09-25T12:21:34.072Z,1999.90
2022-09-25T12:24:00.409Z,1999.90
2022-09-25T12:26:26.660Z,1999.90
2022-09-25T12:28:52.961Z,1999.90
2022-09-25T12:31:19.345Z,1999.90
2022-09-25T12:33:45.719Z,1999.90
2022-09-25T12:36:11.984Z,1999.90
2022-09-25T12:38:38.259Z,1999.90
2022-09-25T12:41:06.439Z,1999.90
2022-09-25T12:43:33.600Z,1999.90
2022-09-25T12:46:00.455Z,1999.90
2022-09-25T12:48:26.744Z,1999.90
2022-09-25T12:50:53.008Z,1999.90
2022-09-25T12:53:19.263Z,1999.90
2022-09-25T12:55:45.521Z,1999.90
2022-09-25T12:58:12.034Z,1999.90
2022-09-25T13:00:38.765Z,1999.90
2022-09-25T13:03:05.040Z,1999.90
2022-09-25T13:05:31.818Z,1999.90
2022-09-25T13:07:58.109Z,1999.90
2022-09-25T13:10:24.919Z,1999.90
2022-09-25T13:12:51.198Z,1999.90
2022-09-25T13:15:17.455Z,1999.90
2022-09-25T13:17:43.703Z,1999.90
2022-09-25T13:23:01.661Z,1999.90
2022-09-25T13:25:27.960Z,1999.90
2022-09-25T13:27:54.264Z,1999.90
2022-09-25T13:30:20.566Z,1999.90
2022-09-25T13:32:46.834Z,1999.90
2022-09-25T13:35:17.290Z,1999.90
2022-09-25T13:37:45.588Z,1999.90
2022-09-25T13:40:30.456Z,1999.90
2022-09-25T13:42:56.764Z,1999.90
2022-09-25T13:45:23.034Z,1999.90
2022-09-25T13:47:49.499Z,1999.90
2022-09-25T13:50:15.785Z,1999.90
2022-09-25T13:52:42.048Z,1999.90
2022-09-25T13:55:08.318Z,1999.90
2022-09-25T13:57:36.334Z,1999.90
2022-09-25T14:00:03.254Z,1999.90
2022-09-25T14:02:29.514Z,1999.90
2022-09-25T14:04:55.818Z,1999.90
2022-09-25T14:07:22.083Z,1999.90
2022-09-25T14:09:48.368Z,1999.90
2022-09-25T14:12:19.301Z,1999.90
2022-09-25T14:14:52.229Z,1999.90
2022-09-25T14:17:18.504Z,1999.90
2022-09-25T14:19:44.936Z,1999.90
2022-09-25T14:22:11.334Z,1999.90
2022-09-25T14:24:38.186Z,1999.90
2022-09-25T14:27:04.446Z,1999.90
2022-09-25T14:29:30.874Z,1999.90
2022-09-25T14:31:57.825Z,1999.90
2022-09-25T14:34:28.159Z,1999.90
2022-09-25T14:36:54.420Z,1999.90
2022-09-25T14:39:20.689Z,1999.90
2022-09-25T14:41:46.980Z,1999.90
2022-09-25T14:44:14.575Z,1999.90
2022-09-25T14:46:40.889Z,1999.90
2022-09-25T14:49:07.152Z,1999.90
2022-09-25T14:51:33.420Z,1999.90
2022-09-25T14:53:59.757Z,1999.90
2022-09-25T14:56:26.022Z,1999.90
2022-09-25T14:58:52.271Z,1999.90
2022-09-25T15:01:19.069Z,1999.90
2022-09-25T15:03:46.779Z,1999.90
2022-09-25T15:06:16.347Z,1999.90
2022-09-25T15:08:42.896Z,1999.90
2022-09-25T15:11:09.168Z,1999.90
2022-09-25T15:13:35.442Z,1999.90
2022-09-25T15:16:20.518Z,1999.90
2022-09-25T15:18:46.874Z,1999.90
2022-09-25T15:21:13.137Z,1999.90
2022-09-25T15:23:39.806Z,1999.90
2022-09-25T15:26:06.058Z,1999.90
2022-09-25T15:28:32.310Z,1999.90
2022-09-25T15:30:58.650Z,1999.90
2022-09-25T15:33:25.503Z,1999.90
2022-09-25T15:35:51.789Z,1999.90
2022-09-25T15:38:18.411Z,263.30
2022-09-25T15:40:44.739Z,197.75
2022-09-25T15:43:11.069Z,159.85
2022-09-25T15:45:37.399Z,152.30
2022-09-25T15:48:03.808Z,242.48
2022-09-25T15:50:30.109Z,364.90
2022-09-25T15:52:56.384Z,444.98
2022-09-25T15:55:22.638Z,514.70
2022-09-25T15:57:48.926Z,547.60
2022-09-25T16:00:33.871Z,500.02
2022-09-25T16:03:18.821Z,298.80
2022-09-25T16:05:45.377Z,137.68
2022-09-25T16:08:11.740Z,150.55
2022-09-25T16:10:38.000Z,154.95
2022-09-25T16:13:04.273Z,122.80
2022-09-25T16:15:30.976Z,197.65
2022-09-25T16:18:01.418Z,298.45
2022-09-25T16:20:30.802Z,399.90
2022-09-25T16:22:57.127Z,413.13
2022-09-25T16:25:25.552Z,220.25
2022-09-25T16:27:51.810Z,127.47
2022-09-25T16:30:18.053Z,115.32
2022-09-25T16:32:44.306Z,128.50
2022-09-25T16:35:10.564Z,174.85
2022-09-25T16:37:36.872Z,221.90
2022-09-25T16:40:03.278Z,217.32
2022-09-25T16:42:29.549Z,179.80
2022-09-25T16:44:56.484Z,151.93
2022-09-25T16:47:23.877Z,165.80
2022-09-25T16:49:50.354Z,221.88
2022-09-25T16:52:20.506Z,251.52
2022-09-25T16:54:46.956Z,177.63
2022-09-25T16:57:17.075Z,213.23
2022-09-25T16:59:43.328Z,235.50
2022-09-25T17:02:09.681Z,252.20
2022-09-25T17:04:38.650Z,329.10
2022-09-25T17:07:04.960Z,348.42
2022-09-25T17:09:31.349Z,218.13
2022-09-25T17:11:57.649Z,232.07
2022-09-25T17:14:23.960Z,374.42
2022-09-25T17:16:50.215Z,406.65
2022-09-25T17:19:16.734Z,257.83
2022-09-25T17:21:42.982Z,121.55
2022-09-25T17:24:09.264Z,196.65
2022-09-25T17:26:35.546Z,376.27
2022-09-25T17:29:01.820Z,224.20
2022-09-25T17:31:28.146Z,114.97
2022-09-25T17:33:54.456Z,182.43
2022-09-25T17:36:20.703Z,238.55
2022-09-25T17:38:47.016Z,223.27
2022-09-25T17:41:13.895Z,149.18
2022-09-25T17:43:42.957Z,152.98
2022-09-25T17:46:09.264Z,220.63
2022-09-25T17:48:35.584Z,148.15
2022-09-25T17:51:01.875Z,125.88
2022-09-25T17:53:28.816Z,251.43
2022-09-25T17:55:55.201Z,144.30
2022-09-25T17:58:22.059Z,128.05
2022-09-25T18:00:48.368Z,156.68
2022-09-25T18:03:14.798Z,193.45
2022-09-25T18:05:41.110Z,159.20
2022-09-25T18:08:07.383Z,96.53
2022-09-25T18:10:33.648Z,90.75
2022-09-25T18:12:59.975Z,103.55
2022-09-25T18:15:26.289Z,138.70
2022-09-25T18:17:52.613Z,129.73
2022-09-25T18:20:37.428Z,121.35
2022-09-25T18:23:03.688Z,111.93
2022-09-25T18:25:29.943Z,78.10
2022-09-25T18:27:56.199Z,78.68
2022-09-25T18:30:24.433Z,92.72
2022-09-25T18:32:51.018Z,100.97
2022-09-25T18:35:17.271Z,113.38
2022-09-25T18:37:43.648Z,126.63
2022-09-25T18:40:09.968Z,142.13
2022-09-25T18:42:36.256Z,158.35
2022-09-25T18:45:03.632Z,146.45
2022-09-25T18:47:29.899Z,116.50
2022-09-25T18:49:56.140Z,90.57
2022-09-25T18:52:22.422Z,93.13
2022-09-25T18:54:48.669Z,94.55
2022-09-25T18:57:15.066Z,129.23
2022-09-25T18:59:41.349Z,169.30
2022-09-25T19:02:07.716Z,193.52
2022-09-25T19:04:35.055Z,185.32
2022-09-25T19:07:01.323Z,143.65
2022-09-25T19:09:28.210Z,102.20
2022-09-25T19:11:55.185Z,93.50
2022-09-25T19:14:21.983Z,130.48
2022-09-25T19:16:48.299Z,102.70
2022-09-25T19:19:14.876Z,110.70
2022-09-25T19:21:44.829Z,164.95
2022-09-25T19:24:11.087Z,132.68
2022-09-25T19:26:37.358Z,92.53
2022-09-25T19:29:04.605Z,63.33
2022-09-25T19:31:31.497Z,61.70
2022-09-25T19:33:58.058Z,61.50
2022-09-25T19:36:24.512Z,54.63
2022-09-25T19:38:50.768Z,59.65
2022-09-25T19:41:17.021Z,63.08
2022-09-25T19:43:43.294Z,73.13
2022-09-25T19:46:10.506Z,76.55
2022-09-25T19:48:36.838Z,74.68
2022-09-25T19:51:03.086Z,74.00
2022-09-25T19:53:29.336Z,106.00
2022-09-25T19:55:55.611Z,155.48
2022-09-25T19:58:23.594Z,169.02
2022-09-25T20:00:50.638Z,174.50
2022-09-25T20:03:16.930Z,159.57
2022-09-25T20:05:44.440Z,132.38
2022-09-25T20:08:10.693Z,95.18
2022-09-25T20:10:37.004Z,69.85
2022-09-25T20:13:03.258Z,72.85
2022-09-25T20:15:29.919Z,110.80
2022-09-25T20:17:56.301Z,61.28
2022-09-25T20:20:22.659Z,70.57
2022-09-25T20:22:48.945Z,112.75
2022-09-25T20:25:15.540Z,172.05
2022-09-25T20:27:41.802Z,227.45
2022-09-25T20:30:08.052Z,214.32
2022-09-25T20:32:35.094Z,146.55
2022-09-25T20:35:01.271Z,103.90
2022-09-25T20:37:27.551Z,92.35
2022-09-25T20:39:53.851Z,128.52
2022-09-25T20:42:21.202Z,102.35
2022-09-25T20:44:47.446Z,127.93
2022-09-25T21:01:45.922Z,94.35
2022-09-25T21:04:12.207Z,74.55
2022-09-25T21:06:38.585Z,74.80
2022-09-25T21:09:04.838Z,97.07
2022-09-25T21:11:31.625Z,101.82
2022-09-25T21:14:02.391Z,96.95
2022-09-25T21:16:28.697Z,83.22
2022-09-25T21:18:54.989Z,69.93
2022-09-25T21:21:21.256Z,69.13
2022-09-25T21:23:47.962Z,62.53
2022-09-25T21:26:14.228Z,75.82
2022-09-25T21:28:40.490Z,73.93
2022-09-25T21:31:06.850Z,62.03
2022-09-25T21:33:33.112Z,63.45
2022-09-25T21:35:59.355Z,57.88
2022-09-25T21:38:25.631Z,61.25
2022-09-25T21:40:53.647Z,68.40
2022-09-25T21:43:20.628Z,74.75
2022-09-25T21:45:46.939Z,74.38
2022-09-25T21:48:13.508Z,81.60
2022-09-25T21:50:40.031Z,87.00
2022-09-25T21:53:06.283Z,89.72
2022-09-25T21:55:32.539Z,86.90
2022-09-25T21:57:58.807Z,78.50
2022-09-25T22:00:25.047Z,60.90
2022-09-25T22:02:51.348Z,63.92
2022-09-25T22:05:17.656Z,76.35
2022-09-25T22:07:43.925Z,94.93
2022-09-25T22:10:10.167Z,127.07
2022-09-25T22:12:36.427Z,143.27
2022-09-25T22:15:02.711Z,137.45
2022-09-25T22:17:28.956Z,127.65
2022-09-25T22:19:55.238Z,115.75
2022-09-25T22:22:21.507Z,102.25
2022-09-25T22:24:47.777Z,96.43
2022-09-25T22:27:14.027Z,83.72
2022-09-25T22:29:40.280Z,81.05
2022-09-25T22:32:06.543Z,76.68
2022-09-25T22:34:32.797Z,84.97
2022-09-25T22:37:00.383Z,84.65
2022-09-25T22:39:26.902Z,90.70
2022-09-25T22:41:53.160Z,90.20
2022-09-25T22:44:19.619Z,103.00
2022-09-25T22:46:45.885Z,97.68
2022-09-25T22:49:12.188Z,92.50
2022-09-25T22:51:38.472Z,80.05
2022-09-25T22:54:04.729Z,84.38
2022-09-25T22:56:30.977Z,75.95
2022-09-25T22:58:57.219Z,61.70
2022-09-25T23:01:23.592Z,54.13
2022-09-25T23:03:49.904Z,52.58
2022-09-25T23:06:16.164Z,59.17
2022-09-25T23:08:42.414Z,59.40
2022-09-25T23:11:08.736Z,57.65
2022-09-25T23:13:35.024Z,60.00
2022-09-25T23:16:01.278Z,60.83
2022-09-25T23:18:27.554Z,66.50
2022-09-25T23:20:53.814Z,65.85
2022-09-25T23:23:20.063Z,79.68
2022-09-25T23:25:46.512Z,87.10
2022-09-25T23:28:12.781Z,89.88
2022-09-25T23:30:39.116Z,90.15
2022-09-25T23:33:05.441Z,87.53
2022-09-25T23:35:34.385Z,95.68
2022-09-25T23:38:00.644Z,96.50
2022-09-25T23:40:26.947Z,97.68
2022-09-25T23:42:54.421Z,97.55
2022-09-25T23:45:20.820Z,95.90
2022-09-25T23:47:47.078Z,103.30
2022-09-25T23:50:13.332Z,104.35
2022-09-25T23:52:39.585Z,107.53
2022-09-25T23:55:06.054Z,103.95
2022-09-25T23:57:32.307Z,90.65
2022-09-25T23:59:58.573Z,71.85
